createdAt,value
2018-08-23T00:01:37.796Z,25.80
2018-08-23T00:04:11.959Z,25.90
2018-08-23T00:06:50.143Z,25.23
2018-08-23T00:09:20.299Z,25.05
2018-08-23T00:11:50.454Z,24.47
2018-08-23T00:14:21.765Z,25.30
2018-08-23T00:16:51.993Z,25.88
2018-08-23T00:19:22.197Z,24.77
2018-08-23T00:21:52.410Z,23.15
2018-08-23T00:24:23.671Z,25.32
2018-08-23T00:26:57.249Z,24.92
2018-08-23T00:29:32.497Z,25.40
2018-08-23T00:32:04.199Z,24.15
2018-08-23T00:34:36.480Z,23.93
2018-08-23T00:37:07.228Z,23.42
2018-08-23T00:39:37.387Z,23.83
2018-08-23T00:42:09.182Z,23.83
2018-08-23T00:45:01.979Z,24.57
2018-08-23T00:47:34.082Z,24.63
2018-08-23T00:50:04.244Z,24.92
2018-08-23T00:52:48.500Z,24.98
2018-08-23T00:58:06.060Z,25.82
2018-08-23T01:00:36.258Z,24.05
2018-08-23T01:03:06.447Z,25.77
2018-08-23T01:05:37.536Z,25.92
2018-08-23T01:08:08.977Z,25.60
2018-08-23T01:10:41.242Z,24.57
2018-08-23T01:13:11.458Z,26.12
2018-08-23T01:15:44.218Z,25.97
2018-08-23T01:18:17.797Z,24.20
2018-08-23T01:20:49.272Z,25.27
2018-08-23T01:23:19.392Z,25.70
2018-08-23T01:25:50.223Z,25.50
2018-08-23T01:28:20.304Z,25.88
2018-08-23T01:30:50.981Z,26.60
2018-08-23T01:33:22.642Z,24.37
2018-08-23T01:35:53.097Z,24.90
2018-08-23T01:38:23.303Z,24.98
2018-08-23T01:40:59.689Z,25.52
2018-08-23T01:43:29.921Z,26.30
2018-08-23T01:46:00.077Z,25.15
2018-08-23T01:48:30.419Z,26.50
2018-08-23T01:51:00.541Z,26.95
2018-08-23T01:53:35.791Z,27.32
2018-08-23T01:56:06.319Z,27.93
2018-08-23T01:58:36.558Z,26.70
2018-08-23T02:01:17.099Z,29.63
2018-08-23T02:03:47.369Z,29.30
2018-08-23T02:06:17.621Z,28.67
2018-08-23T02:08:48.221Z,28.23
2018-08-23T02:11:18.308Z,27.93
2018-08-23T02:13:50.543Z,28.65
2018-08-23T02:16:20.668Z,29.00
2018-08-23T02:18:51.063Z,28.77
2018-08-23T02:21:21.202Z,28.25
2018-08-23T02:23:54.057Z,29.82
2018-08-23T02:26:24.203Z,29.05
2018-08-23T02:28:54.439Z,27.80
2018-08-23T02:31:24.560Z,27.98
2018-08-23T02:33:54.698Z,28.25
2018-08-23T02:36:25.398Z,27.55
2018-08-23T02:38:59.298Z,27.32
2018-08-23T02:41:29.604Z,29.57
2018-08-23T02:43:59.857Z,30.10
2018-08-23T02:46:32.018Z,29.65
2018-08-23T02:49:02.244Z,29.90
2018-08-23T02:51:43.022Z,28.27
2018-08-23T02:54:14.434Z,29.20
2018-08-23T02:56:49.824Z,29.13
2018-08-23T02:59:19.910Z,28.83
2018-08-23T03:01:50.791Z,28.20
2018-08-23T03:04:25.831Z,28.12
2018-08-23T03:06:58.202Z,29.03
2018-08-23T03:09:31.371Z,28.67
2018-08-23T03:12:17.023Z,30.87
2018-08-23T03:14:47.597Z,28.37
2018-08-23T03:17:22.174Z,29.70
2018-08-23T03:21:07.843Z,30.73
2018-08-23T03:23:38.002Z,30.73
2018-08-23T03:26:08.123Z,31.47
2018-08-23T03:28:38.238Z,30.03
2018-08-23T03:31:13.062Z,31.37
2018-08-23T03:33:43.228Z,29.93
2018-08-23T03:36:13.441Z,28.13
2018-08-23T03:38:43.589Z,28.77
2018-08-23T03:41:13.698Z,29.43
2018-08-23T03:43:43.856Z,30.43
2018-08-23T03:46:13.979Z,28.73
2018-08-23T03:48:45.639Z,29.53
2018-08-23T03:51:15.773Z,36.70
2018-08-23T03:53:50.902Z,30.03
2018-08-23T03:56:21.059Z,29.50
2018-08-23T03:58:51.303Z,29.30
2018-08-23T04:01:21.456Z,28.20
2018-08-23T04:03:51.727Z,26.43
2018-08-23T04:06:33.257Z,26.80
2018-08-23T04:09:03.441Z,21.77
2018-08-23T04:11:33.619Z,22.13
2018-08-23T04:14:03.792Z,22.03
2018-08-23T04:16:34.850Z,23.77
2018-08-23T04:19:05.072Z,25.33
2018-08-23T04:21:35.264Z,25.53
2018-08-23T04:24:05.558Z,27.00
2018-08-23T04:26:35.702Z,27.43
2018-08-23T04:29:05.983Z,30.37
2018-08-23T04:31:36.175Z,27.87
2018-08-23T04:34:07.879Z,27.90
2018-08-23T04:36:40.863Z,27.33
2018-08-23T04:39:12.502Z,26.47
2018-08-23T04:41:43.338Z,26.90
2018-08-23T04:44:16.493Z,27.57
2018-08-23T04:46:46.679Z,29.50
2018-08-23T04:49:16.882Z,29.43
2018-08-23T04:51:47.008Z,28.90
2018-08-23T04:54:17.115Z,28.23
2018-08-23T04:56:47.224Z,28.73
2018-08-23T04:59:17.322Z,27.47
2018-08-23T05:01:47.485Z,27.50
2018-08-23T05:04:17.537Z,27.37
2018-08-23T05:06:47.752Z,27.27
2018-08-23T05:09:17.897Z,27.80
2018-08-23T05:11:48.098Z,27.03
2018-08-23T05:14:18.245Z,27.17
2018-08-23T05:16:48.440Z,28.17
2018-08-23T05:19:18.538Z,27.30
2018-08-23T05:21:48.684Z,28.60
2018-08-23T05:24:18.963Z,27.50
2018-08-23T05:26:49.104Z,30.30
2018-08-23T05:29:19.283Z,27.87
2018-08-23T05:31:49.337Z,27.90
2018-08-23T05:34:19.562Z,26.90
2018-08-23T05:36:49.710Z,29.13
2018-08-23T05:39:22.146Z,29.07
2018-08-23T05:41:53.261Z,30.37
2018-08-23T05:44:23.423Z,28.40
2018-08-23T05:46:57.502Z,27.37
2018-08-23T05:49:28.275Z,26.40
2018-08-23T05:51:59.964Z,26.47
2018-08-23T05:54:30.069Z,28.00
2018-08-23T05:57:00.265Z,28.37
2018-08-23T05:59:30.348Z,26.53
2018-08-23T06:02:00.482Z,26.83
2018-08-23T06:04:42.651Z,27.57
2018-08-23T06:07:12.782Z,27.50
2018-08-23T06:09:43.665Z,28.20
2018-08-23T06:12:13.778Z,28.70
2018-08-23T06:14:43.985Z,27.40
2018-08-23T06:17:14.085Z,28.73
2018-08-23T06:19:44.236Z,29.13
2018-08-23T06:22:14.442Z,29.63
2018-08-23T06:24:44.635Z,28.23
2018-08-23T06:27:14.865Z,29.13
2018-08-23T06:29:45.073Z,30.07
2018-08-23T06:32:16.446Z,29.57
2018-08-23T06:34:50.894Z,29.03
2018-08-23T06:37:22.604Z,28.97
2018-08-23T06:39:52.786Z,30.00
2018-08-23T06:42:37.435Z,28.23
2018-08-23T06:45:07.883Z,30.10
2018-08-23T06:47:42.712Z,29.13
2018-08-23T06:50:12.989Z,28.60
2018-08-23T06:52:48.416Z,30.10
2018-08-23T06:55:36.359Z,28.67
2018-08-23T06:58:06.733Z,29.57
2018-08-23T07:00:37.008Z,30.27
2018-08-23T07:03:07.285Z,31.27
2018-08-23T07:05:37.592Z,31.85
2018-08-23T07:08:08.284Z,30.48
2018-08-23T07:10:38.596Z,31.55
2018-08-23T07:13:09.025Z,32.25
2018-08-23T07:15:41.462Z,33.53
2018-08-23T07:18:16.252Z,33.02
2018-08-23T07:20:46.462Z,32.40
2018-08-23T07:23:31.084Z,30.85
2018-08-23T07:26:01.295Z,33.73
2018-08-23T07:28:32.015Z,29.80
2018-08-23T07:31:02.200Z,31.65
2018-08-23T07:33:34.875Z,30.25
2018-08-23T07:36:21.633Z,29.07
2018-08-23T07:38:51.854Z,27.30
2018-08-23T07:41:22.258Z,28.87
2018-08-23T07:43:52.492Z,23.67
2018-08-23T07:46:22.842Z,22.35
2018-08-23T07:48:52.942Z,22.48
2018-08-23T07:51:25.063Z,20.72
2018-08-23T07:53:58.667Z,18.07
2018-08-23T07:56:29.387Z,16.73
2018-08-23T07:58:59.506Z,16.27
2018-08-23T08:01:32.935Z,15.25
2018-08-23T08:04:03.258Z,15.40
2018-08-23T08:06:33.695Z,17.60
2018-08-23T08:09:04.661Z,17.70
2018-08-23T08:12:01.820Z,19.15
2018-08-23T08:14:38.004Z,21.13
2018-08-23T08:17:18.833Z,18.55
2018-08-23T08:19:56.799Z,16.95
2018-08-23T08:22:27.277Z,17.15
2018-08-23T08:25:16.745Z,15.10
2018-08-23T08:27:47.339Z,13.95
2018-08-23T08:30:21.536Z,14.25
2018-08-23T08:32:51.682Z,13.32
2018-08-23T08:35:21.891Z,13.72
2018-08-23T08:37:52.238Z,14.43
2018-08-23T08:40:23.849Z,14.58
2018-08-23T08:42:54.080Z,13.32
2018-08-23T08:45:27.979Z,13.95
2018-08-23T08:48:32.022Z,13.15
2018-08-23T08:51:21.692Z,12.73
2018-08-23T08:53:52.435Z,13.48
2018-08-23T08:56:33.121Z,13.15
2018-08-23T08:59:04.196Z,13.10
2018-08-23T09:01:34.458Z,13.58
2018-08-23T09:04:04.983Z,12.45
2018-08-23T09:06:50.736Z,12.90
2018-08-23T09:09:33.205Z,13.65
2018-08-23T09:12:07.939Z,13.65
2018-08-23T09:14:39.085Z,11.23
2018-08-23T09:17:30.594Z,13.08
2018-08-23T09:20:08.400Z,11.68
2018-08-23T09:22:53.793Z,13.93
2018-08-23T09:25:28.963Z,15.43
2018-08-23T09:27:59.161Z,14.07
2018-08-23T09:30:31.762Z,14.10
2018-08-23T09:33:06.887Z,16.25
2018-08-23T09:35:37.322Z,16.95
2018-08-23T09:38:13.668Z,15.85
2018-08-23T09:40:43.924Z,15.85
2018-08-23T09:43:14.199Z,17.20
2018-08-23T09:45:44.399Z,16.42
2018-08-23T09:48:14.719Z,15.88
2018-08-23T09:50:44.883Z,16.82
2018-08-23T09:53:19.923Z,16.50
2018-08-23T09:55:51.619Z,17.62
2018-08-23T09:58:27.944Z,16.57
2018-08-23T10:01:03.028Z,17.67
2018-08-23T10:03:38.135Z,15.75
2018-08-23T10:06:13.489Z,16.50
2018-08-23T10:08:48.808Z,15.78
2018-08-23T10:11:24.086Z,16.45
2018-08-23T10:13:59.337Z,16.70
2018-08-23T10:16:34.669Z,16.07
2018-08-23T10:19:09.837Z,15.35
2018-08-23T10:21:44.936Z,16.25
2018-08-23T10:24:20.309Z,16.27
2018-08-23T10:26:50.429Z,16.55
2018-08-23T10:29:20.544Z,18.00
2018-08-23T10:31:50.714Z,18.67
2018-08-23T10:34:20.873Z,18.57
2018-08-23T10:36:51.003Z,20.62
2018-08-23T10:39:21.157Z,17.17
2018-08-23T10:41:51.338Z,18.32
2018-08-23T10:44:21.641Z,17.05
2018-08-23T10:46:57.584Z,17.55
2018-08-23T10:49:27.901Z,16.73
2018-08-23T10:51:58.053Z,16.40
2018-08-23T10:54:28.234Z,16.57
2018-08-23T10:56:58.404Z,17.57
2018-08-23T10:59:28.628Z,19.20
2018-08-23T11:01:58.734Z,17.40
2018-08-23T11:04:29.048Z,15.17
2018-08-23T11:06:59.477Z,19.10
2018-08-23T11:09:34.730Z,16.53
2018-08-23T11:12:04.961Z,15.03
2018-08-23T11:14:41.063Z,15.85
2018-08-23T11:17:16.281Z,17.35
2018-08-23T11:19:51.446Z,15.08
2018-08-23T11:22:25.645Z,14.07
2018-08-23T11:24:55.824Z,13.48
2018-08-23T11:27:26.068Z,14.20
2018-08-23T11:29:56.500Z,14.78
2018-08-23T11:32:26.630Z,15.20
2018-08-23T11:34:56.864Z,15.63
2018-08-23T11:37:26.999Z,14.47
2018-08-23T11:39:57.349Z,13.80
2018-08-23T11:42:27.515Z,14.47
2018-08-23T11:44:57.802Z,16.23
2018-08-23T11:47:27.944Z,15.00
2018-08-23T11:49:58.162Z,15.20
2018-08-23T11:52:28.291Z,13.45
2018-08-23T11:54:58.560Z,12.40
2018-08-23T11:57:28.858Z,12.43
2018-08-23T11:59:59.085Z,11.80
2018-08-23T12:02:29.362Z,12.15
2018-08-23T12:04:59.678Z,11.68
2018-08-23T12:07:30.099Z,12.13
2018-08-23T12:10:00.394Z,10.55
2018-08-23T12:12:30.501Z,11.80
2018-08-23T12:15:03.260Z,11.03
2018-08-23T12:17:33.424Z,12.13
2018-08-23T12:20:03.655Z,10.95
2018-08-23T12:22:38.905Z,10.88
2018-08-23T12:25:09.075Z,11.55
2018-08-23T12:27:40.060Z,11.22
2018-08-23T12:30:10.399Z,10.17
2018-08-23T12:32:40.625Z,9.73
2018-08-23T12:35:10.838Z,10.08
2018-08-23T12:37:46.095Z,9.23
2018-08-23T12:40:21.339Z,8.83
2018-08-23T12:42:52.911Z,9.98
2018-08-23T12:45:23.084Z,10.63
2018-08-23T12:47:53.284Z,11.03
2018-08-23T12:50:23.447Z,10.38
2018-08-23T12:52:53.837Z,12.40
2018-08-23T12:55:24.108Z,10.57
2018-08-23T12:57:54.334Z,10.65
2018-08-23T13:00:24.525Z,9.23
2018-08-23T13:02:54.854Z,8.78
2018-08-23T13:05:25.089Z,9.85
2018-08-23T13:07:55.255Z,10.10
2018-08-23T13:10:25.465Z,10.80
2018-08-23T13:12:55.661Z,10.00
2018-08-23T13:15:25.797Z,10.82
2018-08-23T13:17:55.973Z,12.18
2018-08-23T13:20:26.204Z,13.50
2018-08-23T13:22:56.432Z,13.88
2018-08-23T13:25:29.302Z,13.78
2018-08-23T13:27:59.511Z,13.20
2018-08-23T13:30:29.761Z,15.48
2018-08-23T13:33:00.048Z,14.87
2018-08-23T13:35:30.356Z,12.95
2018-08-23T13:38:00.543Z,12.18
2018-08-23T13:40:30.784Z,12.95
2018-08-23T13:43:01.024Z,11.45
2018-08-23T13:45:31.263Z,11.50
2018-08-23T13:48:01.480Z,10.38
2018-08-23T13:50:31.643Z,9.33
2018-08-23T13:53:01.860Z,9.05
2018-08-23T13:55:32.010Z,9.85
2018-08-23T13:58:02.152Z,9.65
2018-08-23T14:00:37.256Z,9.35
2018-08-23T14:03:08.322Z,10.38
2018-08-23T14:05:39.649Z,8.58
2018-08-23T14:08:10.377Z,7.58
2018-08-23T14:10:40.617Z,8.45
2018-08-23T14:13:10.842Z,7.58
2018-08-23T14:15:46.115Z,7.65
2018-08-23T14:18:16.327Z,8.93
2018-08-23T14:20:46.536Z,9.03
2018-08-23T14:23:16.777Z,9.00
2018-08-23T14:25:46.870Z,8.20
2018-08-23T14:28:17.022Z,7.28
2018-08-23T14:30:47.227Z,8.15
2018-08-23T14:33:17.403Z,7.12
2018-08-23T14:35:47.605Z,7.87
2018-08-23T14:38:17.830Z,8.10
2018-08-23T14:40:48.152Z,8.05
2018-08-23T14:43:18.345Z,7.90
2018-08-23T14:45:48.562Z,7.25
2018-08-23T14:48:20.128Z,6.78
2018-08-23T14:50:54.346Z,7.10
2018-08-23T14:53:26.449Z,6.65
2018-08-23T14:56:01.636Z,6.72
2018-08-23T14:58:32.127Z,7.67
2018-08-23T15:01:02.429Z,6.78
2018-08-23T15:03:32.623Z,6.22
2018-08-23T15:06:02.952Z,6.30
2018-08-23T15:08:33.165Z,7.25
2018-08-23T15:11:03.380Z,7.67
2018-08-23T15:13:33.514Z,6.78
2018-08-23T15:16:03.779Z,6.80
2018-08-23T15:18:33.986Z,8.25
2018-08-23T15:21:04.146Z,7.20
2018-08-23T15:23:34.371Z,6.92
2018-08-23T15:26:04.588Z,5.92
2018-08-23T15:28:34.722Z,5.60
2018-08-23T15:31:04.868Z,5.62
2018-08-23T15:33:35.062Z,4.80
2018-08-23T15:36:05.222Z,5.30
2018-08-23T15:38:35.468Z,5.42
2018-08-23T15:41:05.843Z,4.95
2018-08-23T15:43:35.956Z,4.00
2018-08-23T15:46:06.241Z,4.58
2018-08-23T15:48:36.581Z,4.22
2018-08-23T15:51:06.917Z,4.15
2018-08-23T15:53:41.894Z,3.90
2018-08-23T15:56:12.233Z,4.05
2018-08-23T15:58:42.478Z,4.20
2018-08-23T16:01:12.679Z,4.30
2018-08-23T16:03:43.014Z,4.50
2018-08-23T16:06:13.304Z,6.45
2018-08-23T16:08:48.578Z,5.72
2018-08-23T16:11:19.162Z,5.55
2018-08-23T16:13:49.450Z,5.90
2018-08-23T16:16:24.713Z,6.25
2018-08-23T16:18:59.978Z,6.33
2018-08-23T16:21:35.151Z,6.85
2018-08-23T16:24:05.484Z,6.17
2018-08-23T16:26:40.852Z,6.50
2018-08-23T16:29:11.171Z,6.45
2018-08-23T16:31:41.389Z,6.30
2018-08-23T16:34:11.681Z,7.50
2018-08-23T16:36:42.036Z,7.80
2018-08-23T16:39:12.198Z,6.67
2018-08-23T16:41:42.389Z,7.53
2018-08-23T16:44:12.703Z,9.78
2018-08-23T16:46:42.959Z,7.78
2018-08-23T16:49:13.165Z,8.10
2018-08-23T16:51:43.425Z,8.30
2018-08-23T16:54:13.662Z,7.78
2018-08-23T16:56:43.891Z,7.00
2018-08-23T16:59:14.235Z,6.40
2018-08-23T17:01:44.401Z,8.63
2018-08-23T17:04:14.665Z,7.92
2018-08-23T17:06:46.104Z,7.87
2018-08-23T17:09:26.733Z,6.70
2018-08-23T17:11:57.197Z,7.00
2018-08-23T17:14:27.408Z,7.80
2018-08-23T17:17:02.677Z,8.43
2018-08-23T17:19:32.966Z,8.57
2018-08-23T17:22:03.258Z,7.95
2018-08-23T17:24:33.635Z,8.00
2018-08-23T17:27:03.878Z,7.80
2018-08-23T17:29:34.059Z,9.80
2018-08-23T17:32:04.276Z,8.78
2018-08-23T17:34:34.404Z,8.60
2018-08-23T17:37:04.579Z,8.00
2018-08-23T17:39:34.790Z,8.90
2018-08-23T17:42:05.068Z,8.60
2018-08-23T17:44:37.399Z,8.77
2018-08-23T17:47:07.792Z,8.25
2018-08-23T17:49:37.995Z,8.63
2018-08-23T17:52:08.324Z,9.10
2018-08-23T17:54:38.508Z,8.23
2018-08-23T17:57:08.790Z,8.93
2018-08-23T17:59:39.002Z,8.25
2018-08-23T18:02:09.525Z,8.33
2018-08-23T18:04:39.704Z,9.88
2018-08-23T18:07:09.855Z,8.73
2018-08-23T18:09:40.061Z,9.65
2018-08-23T18:12:10.560Z,9.63
2018-08-23T18:14:40.703Z,9.20
2018-08-23T18:17:10.878Z,9.00
2018-08-23T18:19:41.121Z,8.55
2018-08-23T18:22:11.395Z,9.20
2018-08-23T18:24:41.854Z,9.10
2018-08-23T18:27:12.009Z,8.18
2018-08-23T18:29:42.325Z,8.00
2018-08-23T18:32:12.483Z,8.30
2018-08-23T18:34:42.759Z,8.08
2018-08-23T18:37:13.063Z,7.42
2018-08-23T18:39:43.275Z,7.67
2018-08-23T18:42:13.498Z,7.30
2018-08-23T18:44:43.705Z,7.10
2018-08-23T18:47:14.168Z,8.05
2018-08-23T18:49:44.458Z,6.78
2018-08-23T18:52:14.658Z,6.97
2018-08-23T18:54:44.863Z,6.47
2018-08-23T18:57:15.025Z,6.53
2018-08-23T18:59:45.233Z,7.42
2018-08-23T19:02:15.385Z,6.85
2018-08-23T19:04:45.787Z,6.80
2018-08-23T19:07:21.159Z,6.17
2018-08-23T19:09:55.503Z,6.75
2018-08-23T19:12:25.657Z,6.55
2018-08-23T19:14:56.122Z,6.85
2018-08-23T19:17:44.545Z,6.15
2018-08-23T19:20:14.622Z,5.92
2018-08-23T19:22:44.831Z,6.22
2018-08-23T19:25:15.135Z,5.58
2018-08-23T19:27:45.351Z,5.60
2018-08-23T19:30:15.584Z,5.58
2018-08-23T19:32:45.747Z,6.00
2018-08-23T19:35:15.840Z,5.97
2018-08-23T19:37:46.093Z,5.62
2018-08-23T19:40:16.216Z,5.55
2018-08-23T19:42:46.425Z,6.20
2018-08-23T19:45:16.587Z,5.80
2018-08-23T19:47:51.878Z,5.92
2018-08-23T19:50:22.191Z,6.55
2018-08-23T19:52:52.339Z,6.35
2018-08-23T19:55:22.599Z,6.17
2018-08-23T19:57:52.707Z,6.53
2018-08-23T20:00:22.873Z,6.37
2018-08-23T20:02:53.062Z,6.22
2018-08-23T20:05:23.268Z,6.55
2018-08-23T20:07:53.417Z,6.35
2018-08-23T20:10:23.659Z,6.70
2018-08-23T20:12:53.783Z,6.58
2018-08-23T20:15:24.961Z,6.67
2018-08-23T20:17:56.753Z,6.35
2018-08-23T20:20:26.943Z,7.28
2018-08-23T20:22:57.186Z,6.35
2018-08-23T20:25:27.424Z,6.45
2018-08-23T20:27:57.580Z,6.80
2018-08-23T20:30:28.350Z,6.15
2018-08-23T20:32:59.459Z,6.17
2018-08-23T20:35:29.783Z,6.37
2018-08-23T20:37:59.960Z,6.20
2018-08-23T20:40:30.100Z,6.35
2018-08-23T20:43:00.448Z,5.60
2018-08-23T20:45:30.675Z,5.87
2018-08-23T20:48:00.884Z,5.95
2018-08-23T20:50:31.045Z,5.25
2018-08-23T20:53:01.501Z,5.67
2018-08-23T20:55:31.644Z,5.35
2018-08-23T20:58:02.219Z,5.25
2018-08-23T21:00:32.388Z,5.80
2018-08-23T21:03:02.904Z,5.47
2018-08-23T21:05:33.067Z,5.40
2018-08-23T21:08:03.509Z,5.80
2018-08-23T21:10:33.710Z,5.03
2018-08-23T21:13:03.859Z,4.70
2018-08-23T21:15:37.624Z,5.28
2018-08-23T21:18:10.890Z,5.40
2018-08-23T21:20:42.673Z,5.50
2018-08-23T21:23:12.818Z,5.25
2018-08-23T21:25:42.981Z,5.00
2018-08-23T21:28:13.124Z,5.75
2018-08-23T21:30:43.288Z,6.28
2018-08-23T21:33:13.520Z,6.08
2018-08-23T21:35:43.673Z,5.87
2018-08-23T21:38:13.813Z,6.10
2018-08-23T21:40:44.018Z,5.58
2018-08-23T21:43:14.304Z,6.12
2018-08-23T21:45:44.565Z,5.05
2018-08-23T21:48:14.831Z,5.92
2018-08-23T21:50:45.028Z,5.50
2018-08-23T21:53:15.798Z,5.80
2018-08-23T21:55:45.880Z,6.15
2018-08-23T21:58:16.118Z,5.80
2018-08-23T22:00:51.308Z,5.60
2018-08-23T22:03:21.571Z,5.40
2018-08-23T22:05:51.831Z,5.50
2018-08-23T22:08:21.918Z,5.22
2018-08-23T22:10:52.071Z,5.42
2018-08-23T22:13:22.218Z,5.50
2018-08-23T22:15:52.478Z,5.17
2018-08-23T22:18:22.678Z,4.42
2018-08-23T22:20:53.372Z,4.87
2018-08-23T22:23:23.522Z,4.80
2018-08-23T22:25:53.617Z,4.78
2018-08-23T22:28:23.817Z,5.30
2018-08-23T22:30:53.983Z,4.37
2018-08-23T22:33:24.122Z,4.70
2018-08-23T22:35:54.294Z,5.10
2018-08-23T22:38:24.441Z,4.53
2018-08-23T22:40:54.677Z,4.20
2018-08-23T22:43:24.890Z,4.28
2018-08-23T22:45:55.061Z,4.12
2018-08-23T22:48:25.125Z,4.15
2018-08-23T22:50:55.298Z,3.92
2018-08-23T22:53:25.428Z,3.45
2018-08-23T22:55:55.655Z,3.58
2018-08-23T22:58:25.878Z,3.60
2018-08-23T23:00:55.983Z,3.20
2018-08-23T23:03:31.447Z,3.40
2018-08-23T23:06:01.642Z,3.25
2018-08-23T23:08:31.859Z,3.37
2018-08-23T23:11:02.017Z,3.22
2018-08-23T23:13:32.182Z,2.83
2018-08-23T23:16:02.419Z,3.20
2018-08-23T23:18:32.523Z,2.90
2018-08-23T23:21:02.767Z,3.08
2018-08-23T23:23:32.947Z,3.30
2018-08-23T23:26:03.184Z,3.05
2018-08-23T23:28:33.283Z,2.87
2018-08-23T23:31:03.484Z,3.20
2018-08-23T23:33:33.597Z,2.52
2018-08-23T23:36:03.783Z,2.80
2018-08-23T23:38:33.976Z,2.55
2018-08-23T23:41:04.157Z,1.87
2018-08-23T23:43:34.329Z,1.60
2018-08-23T23:46:04.560Z,1.70
2018-08-23T23:48:34.883Z,1.60
2018-08-23T23:51:05.721Z,1.72
2018-08-23T23:53:36.034Z,1.62
2018-08-23T23:56:06.281Z,1.50
2018-08-23T23:58:36.438Z,1.85
